Time;durP1;ratioP1;P1;durP2;ratioP2;P2;SDS_P1;SDS_P2;PMS_P1;PMS_P2;Temp;Humidity;BMP_temperature;BMP_pressure;BME280_temperature;BME280_humidity;BME280_pressure;Samples;Min_cycle;Max_cycle;Signal;HPM_P1;HPM_P2
2022/07/27 00:00:43;;;;;;;3.30;1.50;;;;;;;;;;5041057;28;20441;-51
2022/07/27 00:03:09;;;;;;;4.40;1.57;;;;;;;;;;5052124;28;20481;-50
2022/07/27 00:05:38;;;;;;;2.80;2.03;;;;;;;;;;5050767;28;20429;-51
2022/07/27 00:08:05;;;;;;;5.53;1.60;;;;;;;;;;5050042;28;21069;-52
2022/07/27 00:10:31;;;;;;;2.20;1.47;;;;;;;;;;5051582;28;20410;-51
2022/07/27 00:12:56;;;;;;;2.03;1.40;;;;;;;;;;5045621;28;20404;-50
2022/07/27 00:15:22;;;;;;;6.20;1.77;;;;;;;;;;5051670;28;20407;-51
2022/07/27 00:17:48;;;;;;;4.40;1.70;;;;;;;;;;5052541;28;20540;-52
2022/07/27 00:20:14;;;;;;;2.90;1.57;;;;;;;;;;5055672;28;20434;-50
2022/07/27 00:22:40;;;;;;;1.53;1.40;;;;;;;;;;5054602;28;20456;-52
2022/07/27 00:25:07;;;;;;;3.33;1.77;;;;;;;;;;5054238;28;20390;-50
2022/07/27 00:27:33;;;;;;;2.40;1.73;;;;;;;;;;5055614;28;20387;-51
2022/07/27 00:29:59;;;;;;;3.10;1.63;;;;;;;;;;5055163;28;20882;-51
2022/07/27 00:32:25;;;;;;;1.60;1.50;;;;;;;;;;5050915;28;20453;-52
2022/07/27 00:34:51;;;;;;;4.40;1.73;;;;;;;;;;5055642;28;20404;-57
2022/07/27 00:37:17;;;;;;;2.93;1.50;;;;;;;;;;5054138;28;20468;-51
2022/07/27 00:39:43;;;;;;;3.80;1.80;;;;;;;;;;5053603;28;20458;-50
2022/07/27 00:42:09;;;;;;;2.63;1.87;;;;;;;;;;5055462;28;20789;-51
2022/07/27 00:44:35;;;;;;;2.50;1.70;;;;;;;;;;5049508;28;20418;-52
2022/07/27 00:47:01;;;;;;;1.60;1.40;;;;;;;;;;5055420;28;20409;-52
2022/07/27 00:49:27;;;;;;;5.20;1.40;;;;;;;;;;5053705;28;20795;-51
2022/07/27 00:51:53;;;;;;;2.03;1.80;;;;;;;;;;5055362;28;20436;-52
2022/07/27 00:54:20;;;;;;;3.27;1.60;;;;;;;;;;5054904;28;20894;-52
2022/07/27 00:56:46;;;;;;;3.17;1.60;;;;;;;;;;5054662;28;20431;-51
2022/07/27 00:59:12;;;;;;;5.93;2.00;;;;;;;;;;5051585;28;20448;-51
2022/07/27 01:01:39;;;;;;;4.33;1.63;;;;;;;;;;5053523;28;20399;-52
2022/07/27 01:04:05;;;;;;;1.53;1.27;;;;;;;;;;5054528;28;20380;-52
2022/07/27 01:06:31;;;;;;;2.20;1.40;;;;;;;;;;5053420;28;20433;-51
2022/07/27 01:11:46;;;;;;;7.30;1.60;;;;;;;;;;5052071;28;20494;-51
2022/07/27 01:14:13;;;;;;;4.00;2.27;;;;;;;;;;5050535;28;20412;-52
2022/07/27 01:16:39;;;;;;;1.70;1.60;;;;;;;;;;5054741;28;20450;-51
2022/07/27 01:19:08;;;;;;;1.60;1.50;;;;;;;;;;5053403;28;20480;-52
2022/07/27 01:21:35;;;;;;;3.73;1.73;;;;;;;;;;5054830;28;20372;-52
2022/07/27 01:24:01;;;;;;;1.87;1.40;;;;;;;;;;5052281;28;20460;-49
2022/07/27 01:26:27;;;;;;;4.40;1.40;;;;;;;;;;5047107;28;20415;-51
2022/07/27 01:28:57;;;;;;;3.07;1.50;;;;;;;;;;5054204;28;20433;-50
2022/07/27 01:31:23;;;;;;;2.07;1.63;;;;;;;;;;5053291;28;20406;-50
2022/07/27 01:33:49;;;;;;;6.57;1.27;;;;;;;;;;5054442;28;20409;-52
2022/07/27 01:36:15;;;;;;;2.33;1.47;;;;;;;;;;5053017;28;20435;-51
2022/07/27 01:38:41;;;;;;;8.57;1.97;;;;;;;;;;5049600;28;20462;-51
2022/07/27 01:41:07;;;;;;;3.83;1.70;;;;;;;;;;5052796;28;20415;-51
2022/07/27 01:43:33;;;;;;;2.33;1.53;;;;;;;;;;5054294;28;20488;-51
2022/07/27 01:45:59;;;;;;;2.50;1.33;;;;;;;;;;5053377;28;20480;-52
2022/07/27 01:48:25;;;;;;;4.10;1.73;;;;;;;;;;5053682;28;20418;-50
2022/07/27 01:50:52;;;;;;;4.77;2.03;;;;;;;;;;5053161;28;20851;-51
2022/07/27 01:53:18;;;;;;;4.87;1.67;;;;;;;;;;5048443;28;20779;-51
2022/07/27 01:55:44;;;;;;;3.87;1.83;;;;;;;;;;5054293;28;20401;-51
2022/07/27 01:58:10;;;;;;;2.80;1.80;;;;;;;;;;5052627;28;20453;-52
2022/07/27 02:00:37;;;;;;;2.70;1.37;;;;;;;;;;5053868;28;20435;-51
2022/07/27 02:03:03;;;;;;;1.73;1.63;;;;;;;;;;5052596;28;20939;-51
2022/07/27 02:05:29;;;;;;;2.80;1.43;;;;;;;;;;5049964;28;20483;-50
2022/07/27 02:07:55;;;;;;;3.57;1.90;;;;;;;;;;5051859;28;20518;-52
2022/07/27 02:10:21;;;;;;;2.27;1.33;;;;;;;;;;5053408;28;20405;-51
2022/07/27 02:12:47;;;;;;;4.23;2.10;;;;;;;;;;5052479;28;20431;-51
2022/07/27 02:15:14;;;;;;;9.97;1.57;;;;;;;;;;5053313;28;20747;-51
2022/07/27 02:17:41;;;;;;;1.53;1.43;;;;;;;;;;5050075;28;20442;-50
2022/07/27 02:20:08;;;;;;;2.23;1.60;;;;;;;;;;5049330;28;20988;-51
2022/07/27 02:22:34;;;;;;;3.57;2.03;;;;;;;;;;5053352;28;20371;-51
2022/07/27 02:25:00;;;;;;;1.90;1.70;;;;;;;;;;5051988;28;20932;-51
2022/07/27 02:27:26;;;;;;;3.50;1.60;;;;;;;;;;5049481;28;20843;-50
2022/07/27 02:29:52;;;;;;;2.70;1.70;;;;;;;;;;5052563;28;20424;-50
2022/07/27 02:32:19;;;;;;;3.33;1.70;;;;;;;;;;5051741;28;20924;-52
2022/07/27 02:34:45;;;;;;;4.80;1.67;;;;;;;;;;5047618;28;20406;-51
2022/07/27 02:37:11;;;;;;;3.17;1.63;;;;;;;;;;5052461;28;20454;-50
2022/07/27 02:39:37;;;;;;;3.53;1.83;;;;;;;;;;5051135;28;20437;-51
2022/07/27 02:42:03;;;;;;;5.70;2.00;;;;;;;;;;5052675;28;20738;-52
2022/07/27 02:44:29;;;;;;;1.87;1.43;;;;;;;;;;5046281;28;20435;-50
2022/07/27 02:46:55;;;;;;;2.37;1.63;;;;;;;;;;5051795;28;20487;-49
2022/07/27 02:49:21;;;;;;;3.10;2.20;;;;;;;;;;5051634;28;20861;-50
2022/07/27 02:51:51;;;;;;;2.33;2.13;;;;;;;;;;5052759;28;20406;-50
2022/07/27 02:54:17;;;;;;;4.17;1.80;;;;;;;;;;5051410;28;20429;-52
2022/07/27 02:56:43;;;;;;;2.90;1.50;;;;;;;;;;5052316;28;20451;-51
2022/07/27 02:59:09;;;;;;;3.17;1.90;;;;;;;;;;5050868;28;20938;-50
2022/07/27 03:01:36;;;;;;;1.87;1.67;;;;;;;;;;5047012;28;20422;-51
2022/07/27 03:04:02;;;;;;;3.70;2.10;;;;;;;;;;5051123;28;20427;-51
2022/07/27 03:06:28;;;;;;;8.30;1.80;;;;;;;;;;5052181;28;20501;-51
2022/07/27 03:08:54;;;;;;;4.70;1.70;;;;;;;;;;5050579;28;20992;-52
2022/07/27 03:11:20;;;;;;;7.83;1.97;;;;;;;;;;5052477;28;20842;-50
2022/07/27 03:13:46;;;;;;;8.83;2.27;;;;;;;;;;5051119;28;20438;-50
2022/07/27 03:16:12;;;;;;;5.50;1.97;;;;;;;;;;5047752;28;20486;-51
2022/07/27 03:18:38;;;;;;;4.57;2.30;;;;;;;;;;5051664;28;20411;-50
2022/07/27 03:21:06;;;;;;;6.30;2.13;;;;;;;;;;5050717;28;20793;-52
2022/07/27 03:23:32;;;;;;;5.40;1.87;;;;;;;;;;5051958;28;20407;-52
2022/07/27 03:25:59;;;;;;;4.40;1.67;;;;;;;;;;5046547;28;20431;-52
2022/07/27 03:28:25;;;;;;;3.97;1.80;;;;;;;;;;5049833;28;20973;-51
2022/07/27 03:30:51;;;;;;;2.43;1.90;;;;;;;;;;5047485;28;20427;-50
2022/07/27 03:33:17;;;;;;;5.80;1.77;;;;;;;;;;5051741;28;20894;-50
2022/07/27 03:35:43;;;;;;;3.50;1.83;;;;;;;;;;5050560;28;20439;-50
2022/07/27 03:38:08;;;;;;;3.50;2.17;;;;;;;;;;5051511;28;20867;-51
2022/07/27 03:40:34;;;;;;;2.40;1.80;;;;;;;;;;5050382;28;20477;-51
2022/07/27 03:43:00;;;;;;;1.80;1.70;;;;;;;;;;5050233;28;20486;-50
2022/07/27 03:45:27;;;;;;;4.60;1.67;;;;;;;;;;5048243;28;20429;-50
2022/07/27 03:47:53;;;;;;;3.40;1.87;;;;;;;;;;5051817;28;20413;-50
2022/07/27 03:50:19;;;;;;;2.60;1.67;;;;;;;;;;5054388;28;20431;-50
2022/07/27 03:52:45;;;;;;;9.33;2.23;;;;;;;;;;5055767;28;20409;-50
2022/07/27 03:55:11;;;;;;;4.63;2.10;;;;;;;;;;5052875;28;20434;-50
2022/07/27 03:57:37;;;;;;;1.87;1.77;;;;;;;;;;5053579;28;20446;-50
2022/07/27 04:00:04;;;;;;;2.00;1.80;;;;;;;;;;5053875;28;20514;-51
2022/07/27 04:02:30;;;;;;;3.03;2.00;;;;;;;;;;5054751;28;20886;-49
2022/07/27 04:04:56;;;;;;;6.90;1.90;;;;;;;;;;5055487;28;20411;-51
2022/07/27 04:07:21;;;;;;;5.50;3.00;;;;;;;;;;5055569;28;20491;-51
2022/07/27 04:09:47;;;;;;;4.70;2.10;;;;;;;;;;5052351;28;20446;-51
2022/07/27 04:12:13;;;;;;;2.10;1.80;;;;;;;;;;5055304;28;20486;-51
2022/07/27 04:14:39;;;;;;;1.83;1.57;;;;;;;;;;5052115;28;20512;-50
2022/07/27 04:17:05;;;;;;;3.00;1.90;;;;;;;;;;5055179;28;20465;-51
2022/07/27 04:19:31;;;;;;;2.00;1.57;;;;;;;;;;5053999;28;20453;-52
2022/07/27 04:21:57;;;;;;;2.90;1.93;;;;;;;;;;5055299;28;20944;-51
2022/07/27 04:24:23;;;;;;;4.23;2.30;;;;;;;;;;5049299;28;20427;-50
2022/07/27 04:26:49;;;;;;;3.60;2.13;;;;;;;;;;5051259;28;20440;-50
2022/07/27 04:29:15;;;;;;;2.53;2.03;;;;;;;;;;5054919;28;20420;-52
2022/07/27 04:31:41;;;;;;;4.10;2.17;;;;;;;;;;5054017;28;20431;-50
2022/07/27 04:34:07;;;;;;;1.80;1.70;;;;;;;;;;5055345;28;20851;-51
2022/07/27 04:36:33;;;;;;;2.03;1.83;;;;;;;;;;5053734;28;20469;-51
2022/07/27 04:38:59;;;;;;;3.23;1.90;;;;;;;;;;5050955;28;20541;-52
2022/07/27 04:41:25;;;;;;;1.90;1.80;;;;;;;;;;5054861;28;20540;-51
2022/07/27 04:43:51;;;;;;;4.40;1.60;;;;;;;;;;5053999;28;20853;-50
2022/07/27 04:46:17;;;;;;;10.00;2.47;;;;;;;;;;5054944;28;20406;-50
2022/07/27 04:48:43;;;;;;;5.27;1.97;;;;;;;;;;5053176;28;20508;-50
2022/07/27 04:51:12;;;;;;;2.07;1.97;;;;;;;;;;5054656;28;20452;-51
2022/07/27 04:53:39;;;;;;;5.07;2.67;;;;;;;;;;5053334;28;20427;-50
2022/07/27 04:56:05;;;;;;;2.97;2.70;;;;;;;;;;5051390;28;20470;-51
2022/07/27 04:58:31;;;;;;;2.97;2.40;;;;;;;;;;5054274;28;20395;-51
2022/07/27 05:00:57;;;;;;;3.97;2.70;;;;;;;;;;5053386;28;20438;-50
2022/07/27 05:03:23;;;;;;;2.20;2.00;;;;;;;;;;5054542;28;20457;-50
2022/07/27 05:05:49;;;;;;;4.13;2.50;;;;;;;;;;5049428;28;20868;-51
2022/07/27 05:08:15;;;;;;;1.90;1.80;;;;;;;;;;5053072;28;20482;-50
2022/07/27 05:10:41;;;;;;;2.93;2.13;;;;;;;;;;5054328;28;20414;-51
2022/07/27 05:13:07;;;;;;;2.47;2.27;;;;;;;;;;5053239;28;20413;-49
2022/07/27 05:15:33;;;;;;;4.00;2.13;;;;;;;;;;5054496;28;20421;-50
2022/07/27 05:17:59;;;;;;;5.30;2.10;;;;;;;;;;5048457;28;20468;-50
2022/07/27 05:20:25;;;;;;;5.70;2.37;;;;;;;;;;5054009;28;20738;-51
2022/07/27 05:22:51;;;;;;;2.27;2.07;;;;;;;;;;5054402;28;20430;-50
2022/07/27 05:25:17;;;;;;;4.87;2.20;;;;;;;;;;5049864;28;20425;-50
2022/07/27 05:27:43;;;;;;;2.73;2.53;;;;;;;;;;5054379;28;20394;-50
2022/07/27 05:30:09;;;;;;;3.00;2.80;;;;;;;;;;5052834;28;20420;-51
2022/07/27 05:32:35;;;;;;;3.53;2.03;;;;;;;;;;5052745;28;20497;-52
2022/07/27 05:35:03;;;;;;;10.20;3.37;;;;;;;;;;5050810;28;20518;-50
2022/07/27 05:37:29;;;;;;;3.27;2.50;;;;;;;;;;5054069;28;20890;-51
2022/07/27 05:39:55;;;;;;;2.50;2.23;;;;;;;;;;5052393;28;20442;-50
2022/07/27 05:42:21;;;;;;;2.37;1.90;;;;;;;;;;5054068;28;20430;-50
2022/07/27 05:44:47;;;;;;;3.23;2.93;;;;;;;;;;5049018;28;20428;-50
2022/07/27 05:47:13;;;;;;;3.33;2.37;;;;;;;;;;5036090;28;20443;-51
2022/07/27 05:49:39;;;;;;;2.17;1.97;;;;;;;;;;5033774;28;20455;-52
2022/07/27 05:52:05;;;;;;;2.53;2.30;;;;;;;;;;5048918;28;20412;-52
2022/07/27 05:54:31;;;;;;;3.03;2.30;;;;;;;;;;5053518;28;20484;-51
2022/07/27 05:56:57;;;;;;;2.40;2.03;;;;;;;;;;5083896;22;20583;-54
2022/07/27 05:59:23;;;;;;;3.40;2.10;;;;;;;;;;5045690;28;20437;-53
2022/07/27 06:01:49;;;;;;;4.20;1.80;;;;;;;;;;5033362;28;20789;-52
2022/07/27 06:04:14;;;;;;;6.13;2.20;;;;;;;;;;5036837;28;20399;-52
2022/07/27 06:09:25;;;;;;;3.77;1.60;;;;;;;;;;5072023;28;20438;-52
2022/07/27 06:11:51;;;;;;;3.00;1.80;;;;;;;;;;5072453;28;20458;-52
2022/07/27 06:14:18;;;;;;;5.50;1.90;;;;;;;;;;5071334;28;20473;-52
2022/07/27 06:16:44;;;;;;;2.23;1.80;;;;;;;;;;5072924;28;20513;-52
2022/07/27 06:19:10;;;;;;;6.77;3.80;;;;;;;;;;5071610;28;21027;-51
2022/07/27 06:21:35;;;;;;;4.80;1.70;;;;;;;;;;5072879;28;20859;-52
2022/07/27 06:24:01;;;;;;;3.53;1.83;;;;;;;;;;5071585;28;20481;-52
2022/07/27 06:26:27;;;;;;;2.17;1.67;;;;;;;;;;5071226;28;20874;-52
2022/07/27 06:28:57;;;;;;;1.90;1.80;;;;;;;;;;5072525;28;20375;-52
2022/07/27 06:31:23;;;;;;;4.40;1.50;;;;;;;;;;5069248;28;20469;-52
2022/07/27 06:33:49;;;;;;;3.43;2.00;;;;;;;;;;5073061;28;20415;-51
2022/07/27 06:36:15;;;;;;;4.03;1.87;;;;;;;;;;5071356;28;20442;-52
2022/07/27 06:38:41;;;;;;;10.23;2.30;;;;;;;;;;5072018;28;20432;-52
2022/07/27 06:41:07;;;;;;;2.53;1.70;;;;;;;;;;5071307;28;20428;-52
2022/07/27 06:43:33;;;;;;;1.60;1.50;;;;;;;;;;5072424;28;20863;-52
2022/07/27 06:45:59;;;;;;;3.53;1.50;;;;;;;;;;5068109;28;20412;-52
2022/07/27 06:48:25;;;;;;;2.50;1.30;;;;;;;;;;5072018;28;20425;-53
2022/07/27 06:50:51;;;;;;;8.37;1.20;;;;;;;;;;5071202;28;20419;-51
2022/07/27 06:53:18;;;;;;;3.40;1.57;;;;;;;;;;5071000;28;20375;-52
2022/07/27 06:55:44;;;;;;;11.20;1.87;;;;;;;;;;5052377;28;20404;-52
2022/07/27 06:58:11;;;;;;;1.83;1.40;;;;;;;;;;5052813;28;20922;-52
2022/07/27 07:00:37;;;;;;;2.70;1.40;;;;;;;;;;5072248;28;20410;-52
2022/07/27 07:03:04;;;;;;;1.40;1.30;;;;;;;;;;5071307;28;20960;-52
2022/07/27 07:05:31;;;;;;;1.60;1.50;;;;;;;;;;5072017;28;20380;-51
2022/07/27 07:07:57;;;;;;;3.47;1.63;;;;;;;;;;5070606;28;20504;-52
2022/07/27 07:10:24;;;;;;;3.23;1.37;;;;;;;;;;5071959;28;20419;-52
2022/07/27 07:12:54;;;;;;;3.03;1.37;;;;;;;;;;5070317;28;20935;-51
2022/07/27 07:15:21;;;;;;;1.70;1.37;;;;;;;;;;5069126;28;20561;-52
2022/07/27 07:17:47;;;;;;;5.57;1.50;;;;;;;;;;5071911;28;20458;-52
2022/07/27 07:20:13;;;;;;;7.40;1.80;;;;;;;;;;5070290;28;20760;-52
2022/07/27 07:22:39;;;;;;;8.33;1.93;;;;;;;;;;5054281;28;20403;-52
2022/07/27 07:25:05;;;;;;;3.63;1.23;;;;;;;;;;5067767;28;20938;-52
2022/07/27 07:27:31;;;;;;;2.90;1.50;;;;;;;;;;5069829;28;20423;-52
2022/07/27 07:29:57;;;;;;;3.37;2.93;;;;;;;;;;5057308;28;20864;-51
2022/07/27 07:32:23;;;;;;;1.40;1.30;;;;;;;;;;5051844;28;20891;-52
2022/07/27 07:34:50;;;;;;;3.50;1.60;;;;;;;;;;5055811;28;20442;-52
2022/07/27 07:37:16;;;;;;;2.30;1.87;;;;;;;;;;5071585;28;20551;-52
2022/07/27 07:39:42;;;;;;;2.77;1.83;;;;;;;;;;5065761;28;20425;-52
2022/07/27 07:42:08;;;;;;;2.70;1.30;;;;;;;;;;5071580;28;20397;-52
2022/07/27 07:44:34;;;;;;;2.10;1.10;;;;;;;;;;5070388;28;20429;-52
2022/07/27 07:47:00;;;;;;;5.63;1.80;;;;;;;;;;5071631;28;20395;-52
2022/07/27 07:49:26;;;;;;;2.27;1.30;;;;;;;;;;5068308;28;20497;-52
2022/07/27 07:51:52;;;;;;;3.93;1.40;;;;;;;;;;5069652;28;20403;-52
2022/07/27 07:54:18;;;;;;;2.30;1.23;;;;;;;;;;5067110;28;20437;-52
2022/07/27 07:56:44;;;;;;;1.77;1.10;;;;;;;;;;5070816;28;20433;-53
2022/07/27 07:59:10;;;;;;;1.80;1.23;;;;;;;;;;5070280;28;20493;-52
2022/07/27 08:01:36;;;;;;;4.00;1.20;;;;;;;;;;5069751;28;20381;-52
2022/07/27 08:04:02;;;;;;;3.23;1.23;;;;;;;;;;5070309;28;20396;-52
2022/07/27 08:06:28;;;;;;;3.70;1.40;;;;;;;;;;5069303;28;20431;-52
2022/07/27 08:08:54;;;;;;;2.30;1.30;;;;;;;;;;5071208;28;20876;-52
2022/07/27 08:11:20;;;;;;;2.73;1.07;;;;;;;;;;5070581;28;20435;-52
2022/07/27 08:13:46;;;;;;;2.63;1.50;;;;;;;;;;5071390;28;20950;-52
2022/07/27 08:16:13;;;;;;;2.03;1.10;;;;;;;;;;5059543;28;20433;-52
2022/07/27 08:18:39;;;;;;;2.30;1.13;;;;;;;;;;5055358;28;20525;-54
2022/07/27 08:21:05;;;;;;;1.57;1.00;;;;;;;;;;5071763;28;20404;-54
2022/07/27 08:23:31;;;;;;;1.30;1.13;;;;;;;;;;5070398;28;20512;-54
2022/07/27 08:25:57;;;;;;;1.30;1.20;;;;;;;;;;5071407;28;20399;-54
2022/07/27 08:28:23;;;;;;;0.90;0.80;;;;;;;;;;5067838;28;20455;-54
2022/07/27 08:30:49;;;;;;;4.13;1.17;;;;;;;;;;5071294;28;20400;-54
2022/07/27 08:33:15;;;;;;;2.80;1.87;;;;;;;;;;5071187;28;20773;-54
2022/07/27 08:35:41;;;;;;;4.00;1.03;;;;;;;;;;5074435;28;20406;-54
2022/07/27 08:38:11;;;;;;;1.60;1.20;;;;;;;;;;5074731;28;20969;-54
2022/07/27 08:40:37;;;;;;;2.60;1.10;;;;;;;;;;5074912;28;20410;-54
2022/07/27 08:43:04;;;;;;;2.00;0.90;;;;;;;;;;5073608;28;20467;-54
2022/07/27 08:45:30;;;;;;;1.20;0.90;;;;;;;;;;5074833;28;20493;-54
2022/07/27 08:47:56;;;;;;;1.20;1.00;;;;;;;;;;5074763;28;20420;-54
2022/07/27 08:50:22;;;;;;;1.53;0.90;;;;;;;;;;5074448;28;20412;-54
2022/07/27 08:52:56;;;;;;;1.30;0.90;;;;;;;;;;5074699;28;20425;-54
2022/07/27 08:55:23;;;;;;;1.80;1.03;;;;;;;;;;5073217;28;20427;-54
2022/07/27 08:57:52;;;;;;;2.20;0.97;;;;;;;;;;5072170;28;20492;-54
2022/07/27 09:00:18;;;;;;;1.30;0.90;;;;;;;;;;5039603;28;20920;-54
2022/07/27 09:02:45;;;;;;;1.73;1.00;;;;;;;;;;5054446;28;20404;-54
2022/07/27 09:05:11;;;;;;;1.47;0.90;;;;;;;;;;5054633;28;20409;-54
2022/07/27 09:07:38;;;;;;;1.93;0.93;;;;;;;;;;5053660;28;20492;-54
2022/07/27 09:10:04;;;;;;;2.20;1.03;;;;;;;;;;5066977;28;20477;-54
2022/07/27 09:12:31;;;;;;;3.90;0.97;;;;;;;;;;5074326;28;20450;-54
2022/07/27 09:15:05;;;;;;;3.63;0.80;;;;;;;;;;5074391;28;20393;-54
2022/07/27 09:17:31;;;;;;;2.90;0.90;;;;;;;;;;5074087;28;21023;-55
2022/07/27 09:19:57;;;;;;;1.60;0.87;;;;;;;;;;5073896;28;20392;-54
2022/07/27 09:22:40;;;;;;;1.00;0.70;;;;;;;;;;5067028;28;20417;-55
2022/07/27 09:25:06;;;;;;;1.50;1.00;;;;;;;;;;5053809;28;20424;-54
2022/07/27 09:27:32;;;;;;;2.50;2.30;;;;;;;;;;5053950;28;20464;-54
2022/07/27 09:30:02;;;;;;;1.53;0.83;;;;;;;;;;5053836;28;20468;-54
2022/07/27 09:32:28;;;;;;;1.10;0.97;;;;;;;;;;5054128;28;20413;-54
2022/07/27 09:34:54;;;;;;;8.03;1.40;;;;;;;;;;5054060;28;20496;-54
2022/07/27 09:37:24;;;;;;;1.63;0.70;;;;;;;;;;5059970;28;20551;-54
2022/07/27 09:39:51;;;;;;;1.43;1.03;;;;;;;;;;5052854;28;20432;-54
2022/07/27 09:42:19;;;;;;;2.43;1.00;;;;;;;;;;5053793;28;20403;-54
2022/07/27 09:44:45;;;;;;;1.23;0.80;;;;;;;;;;5052771;28;20394;-54
2022/07/27 09:47:27;;;;;;;1.33;1.00;;;;;;;;;;5051026;28;20432;-54
2022/07/27 09:49:55;;;;;;;1.63;0.93;;;;;;;;;;5058357;28;20432;-55
2022/07/27 09:52:22;;;;;;;1.30;0.97;;;;;;;;;;5073518;28;20401;-54
2022/07/27 09:54:49;;;;;;;1.00;0.90;;;;;;;;;;5073568;28;20462;-54
2022/07/27 09:57:16;;;;;;;1.23;0.97;;;;;;;;;;5073210;28;20471;-54
2022/07/27 09:59:42;;;;;;;1.73;0.90;;;;;;;;;;5073192;28;20419;-54
2022/07/27 10:02:08;;;;;;;1.57;0.90;;;;;;;;;;5073322;28;20867;-54
2022/07/27 10:04:34;;;;;;;1.60;1.03;;;;;;;;;;5055877;28;20486;-54
2022/07/27 10:07:00;;;;;;;1.00;0.90;;;;;;;;;;5053171;28;20425;-54
2022/07/27 10:09:29;;;;;;;1.23;1.13;;;;;;;;;;5053058;28;21024;-54
2022/07/27 10:11:56;;;;;;;1.30;1.10;;;;;;;;;;5053266;28;20448;-54
2022/07/27 10:14:22;;;;;;;3.97;1.00;;;;;;;;;;5053911;28;20412;-54
2022/07/27 10:16:48;;;;;;;2.20;1.20;;;;;;;;;;5058616;28;21043;-54
2022/07/27 10:19:19;;;;;;;1.23;1.00;;;;;;;;;;5052913;28;20471;-54
2022/07/27 10:21:46;;;;;;;3.07;1.27;;;;;;;;;;5053063;28;20401;-54
2022/07/27 10:24:24;;;;;;;1.30;1.10;;;;;;;;;;5052866;28;20457;-54
2022/07/27 10:26:50;;;;;;;0.90;0.90;;;;;;;;;;5052897;28;20428;-54
2022/07/27 10:29:17;;;;;;;1.87;1.20;;;;;;;;;;5052137;28;20412;-54
2022/07/27 10:31:55;;;;;;;3.00;1.10;;;;;;;;;;5052565;28;20433;-54
2022/07/27 10:34:38;;;;;;;6.27;1.10;;;;;;;;;;5054275;28;20459;-53
2022/07/27 10:37:14;;;;;;;2.00;1.37;;;;;;;;;;5052519;28;20547;-54
2022/07/27 10:39:42;;;;;;;2.33;1.00;;;;;;;;;;5052348;28;20931;-54
2022/07/27 10:42:20;;;;;;;2.20;1.10;;;;;;;;;;5052616;28;20440;-54
2022/07/27 10:44:56;;;;;;;2.53;1.50;;;;;;;;;;5052499;28;20886;-54
2022/07/27 10:47:29;;;;;;;2.40;1.20;;;;;;;;;;5052506;28;20429;-54
2022/07/27 10:50:13;;;;;;;0.90;0.80;;;;;;;;;;5052204;28;20480;-54
2022/07/27 10:52:41;;;;;;;3.90;1.10;;;;;;;;;;5052332;28;20405;-54
2022/07/27 10:55:07;;;;;;;2.90;1.00;;;;;;;;;;5052179;28;20482;-54
2022/07/27 10:57:36;;;;;;;1.70;1.20;;;;;;;;;;5051662;28;20472;-54
2022/07/27 11:00:07;;;;;;;1.30;0.80;;;;;;;;;;5051995;28;20407;-54
2022/07/27 11:02:41;;;;;;;1.50;1.20;;;;;;;;;;5052134;28;20428;-54
2022/07/27 11:05:07;;;;;;;1.63;1.00;;;;;;;;;;5051296;28;20504;-54
2022/07/27 11:07:33;;;;;;;2.40;1.13;;;;;;;;;;5057357;28;20462;-54
2022/07/27 11:10:00;;;;;;;2.50;1.17;;;;;;;;;;5067436;28;20785;-54
2022/07/27 11:12:30;;;;;;;3.40;1.30;;;;;;;;;;5051950;28;20404;-55
2022/07/27 11:14:56;;;;;;;1.20;0.87;;;;;;;;;;5055766;28;20413;-54
2022/07/27 11:17:24;;;;;;;1.60;1.07;;;;;;;;;;5051174;28;20480;-55
2022/07/27 11:20:00;;;;;;;0.90;0.80;;;;;;;;;;5057246;28;20420;-55
2022/07/27 11:22:29;;;;;;;2.00;0.90;;;;;;;;;;5030693;28;20886;-54
2022/07/27 11:24:55;;;;;;;1.90;0.90;;;;;;;;;;5031799;28;20402;-55
2022/07/27 11:27:22;;;;;;;1.60;1.13;;;;;;;;;;5030843;28;20430;-54
2022/07/27 11:29:48;;;;;;;3.23;1.30;;;;;;;;;;5030908;28;20402;-54
2022/07/27 11:32:18;;;;;;;3.43;1.07;;;;;;;;;;5031785;28;20787;-54
2022/07/27 11:34:44;;;;;;;2.80;1.00;;;;;;;;;;5029755;28;20766;-54
2022/07/27 11:37:28;;;;;;;1.50;0.97;;;;;;;;;;5031599;28;20797;-54
2022/07/27 11:39:58;;;;;;;1.67;1.00;;;;;;;;;;5031507;28;20409;-54
2022/07/27 11:42:24;;;;;;;2.70;1.30;;;;;;;;;;5031885;28;20772;-54
2022/07/27 11:44:51;;;;;;;3.30;1.33;;;;;;;;;;5031586;28;20413;-54
2022/07/27 11:47:18;;;;;;;1.03;0.93;;;;;;;;;;5031785;28;20440;-54
2022/07/27 11:49:44;;;;;;;1.57;1.30;;;;;;;;;;5036436;28;20511;-54
2022/07/27 11:52:10;;;;;;;2.37;1.10;;;;;;;;;;5071569;28;20455;-54
2022/07/27 11:54:37;;;;;;;1.60;0.90;;;;;;;;;;5071790;28;20408;-54
2022/07/27 11:57:06;;;;;;;2.03;0.97;;;;;;;;;;5110206;22;20463;-52
2022/07/27 11:59:33;;;;;;;2.20;1.17;;;;;;;;;;5044583;28;20556;-52
2022/07/27 12:02:01;;;;;;;1.63;1.03;;;;;;;;;;5051485;28;20880;-52
2022/07/27 12:04:28;;;;;;;2.33;1.37;;;;;;;;;;5051713;28;20390;-52
2022/07/27 12:06:56;;;;;;;1.77;0.90;;;;;;;;;;5051351;28;20401;-52
2022/07/27 12:09:22;;;;;;;2.23;1.73;;;;;;;;;;5052660;28;20405;-52
2022/07/27 12:11:53;;;;;;;1.13;1.03;;;;;;;;;;5055226;28;20833;-52
2022/07/27 12:14:26;;;;;;;1.20;0.90;;;;;;;;;;5055521;28;20900;-52
2022/07/27 12:16:53;;;;;;;1.30;1.20;;;;;;;;;;5055289;28;20472;-52
2022/07/27 12:19:22;;;;;;;2.20;1.00;;;;;;;;;;5055166;28;20412;-52
2022/07/27 12:21:52;;;;;;;1.23;1.00;;;;;;;;;;5049817;28;20429;-52
2022/07/27 12:24:18;;;;;;;3.70;1.20;;;;;;;;;;5055055;28;20496;-52
2022/07/27 12:27:00;;;;;;;1.67;1.00;;;;;;;;;;5055279;28;20965;-52
2022/07/27 12:29:26;;;;;;;1.40;1.10;;;;;;;;;;5054879;28;20429;-52
2022/07/27 12:31:53;;;;;;;3.63;1.10;;;;;;;;;;5055269;28;20444;-52
2022/07/27 12:34:19;;;;;;;3.17;1.27;;;;;;;;;;5055035;28;20455;-52
2022/07/27 12:36:45;;;;;;;1.83;1.00;;;;;;;;;;5054860;28;20465;-53
2022/07/27 12:39:26;;;;;;;2.03;1.00;;;;;;;;;;5046498;28;20443;-52
2022/07/27 12:42:02;;;;;;;2.00;1.10;;;;;;;;;;5032841;28;20413;-52
2022/07/27 12:44:32;;;;;;;1.83;1.03;;;;;;;;;;5034827;28;20447;-52
2022/07/27 12:47:00;;;;;;;1.03;0.93;;;;;;;;;;5034879;28;20477;-52
2022/07/27 12:49:33;;;;;;;2.03;1.13;;;;;;;;;;5034132;28;20421;-52
2022/07/27 12:52:09;;;;;;;2.00;1.10;;;;;;;;;;5044674;28;20908;-52
2022/07/27 12:54:35;;;;;;;1.17;1.00;;;;;;;;;;5054693;28;20412;-52
2022/07/27 12:57:02;;;;;;;0.87;0.87;;;;;;;;;;5054474;28;20502;-52
2022/07/27 12:59:28;;;;;;;1.30;0.90;;;;;;;;;;5054110;28;20412;-52
2022/07/27 13:01:55;;;;;;;1.40;1.20;;;;;;;;;;5054534;28;20405;-52
2022/07/27 13:04:21;;;;;;;3.20;0.97;;;;;;;;;;5054523;28;20416;-52
2022/07/27 13:06:47;;;;;;;2.80;1.60;;;;;;;;;;5039501;28;20419;-52
2022/07/27 13:09:13;;;;;;;2.10;1.10;;;;;;;;;;5034036;28;20436;-52
2022/07/27 13:11:39;;;;;;;1.83;1.13;;;;;;;;;;5034391;28;20440;-52
2022/07/27 13:14:06;;;;;;;1.40;1.30;;;;;;;;;;5034310;28;20414;-52
2022/07/27 13:16:32;;;;;;;1.00;0.90;;;;;;;;;;5034101;28;20453;-51
2022/07/27 13:18:58;;;;;;;3.50;1.23;;;;;;;;;;5033956;28;20418;-52
2022/07/27 13:21:24;;;;;;;2.33;1.23;;;;;;;;;;5034333;28;20924;-52
2022/07/27 13:23:50;;;;;;;1.00;0.90;;;;;;;;;;5054125;28;20409;-52
2022/07/27 13:26:16;;;;;;;2.60;1.30;;;;;;;;;;5054053;28;20430;-52
2022/07/27 13:28:42;;;;;;;4.20;1.27;;;;;;;;;;5053616;28;20425;-52
2022/07/27 13:31:08;;;;;;;1.17;1.00;;;;;;;;;;5054074;28;20439;-52
2022/07/27 13:33:34;;;;;;;3.13;0.93;;;;;;;;;;5054095;28;20848;-51
2022/07/27 13:36:00;;;;;;;1.70;1.30;;;;;;;;;;5053728;28;20470;-52
2022/07/27 13:38:27;;;;;;;1.60;1.10;;;;;;;;;;5053555;28;20464;-52
2022/07/27 13:40:53;;;;;;;3.53;1.20;;;;;;;;;;5053865;28;20441;-52
2022/07/27 13:43:19;;;;;;;1.90;0.80;;;;;;;;;;5053883;28;20945;-52
2022/07/27 13:45:45;;;;;;;2.07;1.07;;;;;;;;;;5053780;28;20416;-53
2022/07/27 13:48:11;;;;;;;1.53;0.90;;;;;;;;;;5053667;28;20928;-52
2022/07/27 13:50:38;;;;;;;1.30;0.80;;;;;;;;;;5053799;28;20398;-53
2022/07/27 13:53:04;;;;;;;4.30;1.13;;;;;;;;;;5048352;28;20448;-53
2022/07/27 13:55:30;;;;;;;3.00;1.20;;;;;;;;;;5053540;28;20413;-53
2022/07/27 13:57:56;;;;;;;1.97;1.00;;;;;;;;;;5053115;28;20503;-52
2022/07/27 14:00:22;;;;;;;1.00;0.90;;;;;;;;;;5053174;28;20400;-51
2022/07/27 14:02:48;;;;;;;1.83;0.90;;;;;;;;;;5053545;28;20398;-53
2022/07/27 14:05:14;;;;;;;1.50;1.00;;;;;;;;;;5053526;28;20767;-52
2022/07/27 14:07:40;;;;;;;1.10;0.80;;;;;;;;;;5053423;28;20187;-52
2022/07/27 14:13:11;;;;;;;2.43;1.10;;;;;;;;;;4991600;28;20447;-52
2022/07/27 14:15:38;;;;;;;2.03;1.10;;;;;;;;;;5041519;28;20417;-52
2022/07/27 14:18:04;;;;;;;2.70;1.13;;;;;;;;;;5052967;28;20457;-51
2022/07/27 14:20:30;;;;;;;1.73;1.10;;;;;;;;;;5052967;28;20400;-51
2022/07/27 14:22:56;;;;;;;1.80;0.90;;;;;;;;;;5053106;28;20397;-51
2022/07/27 14:25:22;;;;;;;2.07;0.97;;;;;;;;;;5051358;28;20425;-51
2022/07/27 14:27:48;;;;;;;1.10;1.00;;;;;;;;;;5053004;28;20459;-51
2022/07/27 14:30:14;;;;;;;5.13;1.10;;;;;;;;;;5052605;28;20407;-53
2022/07/27 14:32:40;;;;;;;5.93;1.00;;;;;;;;;;5052376;28;20881;-52
2022/07/27 14:35:07;;;;;;;1.43;1.07;;;;;;;;;;5047619;28;21042;-53
2022/07/27 14:37:33;;;;;;;1.20;1.00;;;;;;;;;;5026914;28;20465;-52
2022/07/27 14:39:59;;;;;;;2.33;1.20;;;;;;;;;;5032100;28;20473;-52
2022/07/27 14:42:25;;;;;;;2.10;1.33;;;;;;;;;;5032599;28;20408;-52
2022/07/27 14:44:51;;;;;;;1.83;0.90;;;;;;;;;;5032597;28;20971;-53
2022/07/27 14:47:17;;;;;;;1.57;1.00;;;;;;;;;;5032522;28;20427;-53
2022/07/27 14:49:44;;;;;;;3.73;1.20;;;;;;;;;;5032216;28;20407;-53